Time;durP1;ratioP1;P1;durP2;ratioP2;P2;SDS_P1;SDS_P2;PMS_P1;PMS_P2;Temp;Humidity;BMP_temperature;BMP_pressure;BME280_temperature;BME280_humidity;BME280_pressure;Samples;Min_cycle;Max_cycle;Signal;HPM_P1;HPM_P2
2022/04/11 06:51:05;;;;;;;6.53;4.10;;;7.20;91.70;;;;;;5088637;27;20402;-53
2022/04/11 06:53:32;;;;;;;9.43;4.80;;;7.20;91.50;;;;;;5072752;28;20395;-55
2022/04/11 06:55:59;;;;;;;7.63;4.25;;;7.40;91.30;;;;;;5070248;28;20045;-55
2022/04/11 06:58:27;;;;;;;11.65;4.55;;;7.50;91.00;;;;;;5070245;28;20107;-56
2022/04/11 07:00:53;;;;;;;8.45;4.28;;;7.70;90.30;;;;;;5069946;28;20068;-53
2022/04/11 07:03:20;;;;;;;7.70;4.20;;;7.90;90.50;;;;;;5077171;28;20041;-52
2022/04/11 07:05:47;;;;;;;8.75;4.07;;;8.00;90.00;;;;;;5070816;28;20391;-51
2022/04/11 07:08:14;;;;;;;9.60;4.03;;;8.20;89.10;;;;;;5073067;28;20041;-51
2022/04/11 07:10:41;;;;;;;6.95;3.65;;;8.30;88.50;;;;;;5069579;28;20497;-50
2022/04/11 07:13:07;;;;;;;6.35;3.40;;;8.40;88.50;;;;;;5069373;28;20124;-51
2022/04/11 07:15:34;;;;;;;5.75;3.63;;;8.40;88.10;;;;;;5070033;28;20036;-48
2022/04/11 07:18:01;;;;;;;6.50;3.70;;;8.50;87.50;;;;;;5069539;28;20053;-47
2022/04/11 07:20:28;;;;;;;10.18;3.30;;;8.50;87.40;;;;;;5069453;28;20075;-48
2022/04/11 07:22:55;;;;;;;7.13;3.28;;;8.60;86.00;;;;;;5068338;28;20055;-49
2022/04/11 07:25:24;;;;;;;8.20;3.28;;;8.70;86.00;;;;;;5069518;28;20094;-48
2022/04/11 07:27:51;;;;;;;8.23;3.33;;;8.70;85.00;;;;;;5068950;28;20048;-49
2022/04/11 07:30:17;;;;;;;6.80;3.20;;;8.80;84.60;;;;;;5069354;28;20037;-47
2022/04/11 07:32:44;;;;;;;8.52;3.00;;;8.90;83.90;;;;;;5069328;28;20040;-51
2022/04/11 07:35:11;;;;;;;5.80;2.83;;;9.00;83.90;;;;;;5076513;28;20041;-52
2022/04/11 07:37:38;;;;;;;6.82;3.13;;;9.10;82.80;;;;;;5069268;28;20389;-47
2022/04/11 07:40:04;;;;;;;7.18;2.72;;;9.20;82.80;;;;;;5069385;28;20479;-49
2022/04/11 07:42:31;;;;;;;8.13;3.28;;;9.30;83.00;;;;;;5069264;28;20041;-46
2022/04/11 07:44:58;;;;;;;5.63;2.63;;;9.40;82.10;;;;;;5071257;28;20045;-52
2022/04/11 07:47:24;;;;;;;12.00;3.00;;;9.50;81.20;;;;;;5068852;28;20480;-52
2022/04/11 07:49:51;;;;;;;6.78;2.85;;;9.60;80.20;;;;;;5066501;28;20040;-49
2022/04/11 07:52:18;;;;;;;9.02;2.88;;;9.80;79.30;;;;;;5068666;28;20032;-50
2022/04/11 07:54:45;;;;;;;12.70;3.30;;;9.90;79.60;;;;;;5072277;28;20037;-52
2022/04/11 07:57:12;;;;;;;11.60;3.22;;;9.90;78.30;;;;;;5068633;28;20066;-53
2022/04/11 07:59:59;;;;;;;9.70;3.05;;;10.00;78.40;;;;;;5068792;28;20046;-50
2022/04/11 08:02:26;;;;;;;4.57;2.50;;;10.10;77.90;;;;;;5055724;28;20103;-49
2022/04/11 08:04:52;;;;;;;6.53;2.90;;;10.20;77.10;;;;;;5055427;28;20041;-54
2022/04/11 08:07:19;;;;;;;9.48;2.58;;;10.20;76.50;;;;;;5055415;28;20083;-52
2022/04/11 08:09:51;;;;;;;5.18;2.53;;;10.30;76.20;;;;;;5055347;28;20099;-50
2022/04/11 08:12:18;;;;;;;6.65;2.42;;;10.30;75.80;;;;;;5055966;28;20140;-48
2022/04/11 08:14:44;;;;;;;6.43;2.45;;;10.30;74.90;;;;;;5055644;28;20575;-49
2022/04/11 08:17:12;;;;;;;7.45;2.70;;;10.40;75.50;;;;;;5053644;28;20041;-49
2022/04/11 08:19:39;;;;;;;7.43;2.63;;;10.50;75.60;;;;;;5054683;28;20498;-52
2022/04/11 08:22:06;;;;;;;5.45;2.70;;;10.50;75.20;;;;;;5054756;28;20072;-50
2022/04/11 08:24:32;;;;;;;7.20;2.60;;;10.60;74.60;;;;;;5054864;28;20033;-51
2022/04/11 08:26:59;;;;;;;5.82;2.30;;;10.70;73.90;;;;;;5054945;28;20041;-46
2022/04/11 08:29:26;;;;;;;7.05;2.50;;;10.80;72.60;;;;;;5053580;28;20045;-48
2022/04/11 08:31:53;;;;;;;8.05;2.10;;;10.80;72.90;;;;;;5055185;28;20084;-50
2022/04/11 08:34:19;;;;;;;5.22;2.13;;;10.80;72.80;;;;;;5055154;28;20048;-55
2022/04/11 08:36:46;;;;;;;5.32;2.20;;;10.80;72.40;;;;;;5055004;28;20091;-55
2022/04/11 08:39:13;;;;;;;4.35;2.40;;;10.80;72.80;;;;;;5054755;28;20064;-57
2022/04/11 08:41:40;;;;;;;7.15;2.50;;;10.90;73.10;;;;;;5053794;28;20079;-56
2022/04/11 08:44:06;;;;;;;4.68;2.33;;;10.90;72.20;;;;;;5063001;28;20062;-57
2022/04/11 08:46:34;;;;;;;4.30;2.33;;;11.00;72.70;;;;;;5057403;28;20044;-53
2022/04/11 08:49:01;;;;;;;5.68;2.42;;;11.10;72.20;;;;;;5054602;28;20506;-55
2022/04/11 08:51:28;;;;;;;11.40;2.53;;;11.20;71.90;;;;;;5054772;28;20407;-53
2022/04/11 08:53:55;;;;;;;8.10;2.30;;;11.20;71.40;;;;;;5055376;28;20454;-54
2022/04/11 08:56:21;;;;;;;6.32;2.40;;;11.40;71.50;;;;;;5054467;28;20045;-58
2022/04/11 08:58:48;;;;;;;5.80;2.70;;;11.50;70.60;;;;;;5054595;28;20045;-53
2022/04/11 09:01:16;;;;;;;6.93;2.50;;;11.60;69.90;;;;;;5054318;28;20045;-52
2022/04/11 09:03:47;;;;;;;10.55;2.80;;;11.60;69.10;;;;;;5054423;28;20041;-55
2022/04/11 09:06:17;;;;;;;9.35;2.50;;;11.70;69.00;;;;;;5054208;28;20496;-56
2022/04/11 09:08:44;;;;;;;7.25;2.50;;;11.90;68.20;;;;;;5054404;28;20043;-56
2022/04/11 09:11:11;;;;;;;8.82;2.85;;;12.00;68.10;;;;;;5054301;28;20040;-56
2022/04/11 09:13:38;;;;;;;5.60;2.13;;;12.10;67.90;;;;;;5053535;28;20045;-56
2022/04/11 09:16:05;;;;;;;3.63;1.80;;;12.20;67.20;;;;;;5054237;28;20052;-59
2022/04/11 09:18:31;;;;;;;4.72;2.20;;;12.30;66.20;;;;;;5053043;28;20061;-58
2022/04/11 09:20:58;;;;;;;6.00;2.22;;;12.40;66.80;;;;;;5054151;28;20084;-57
2022/04/11 09:23:25;;;;;;;6.18;1.95;;;12.40;65.30;;;;;;5055721;28;20103;-57
2022/04/11 09:25:52;;;;;;;4.25;1.70;;;12.50;65.30;;;;;;5056230;28;20043;-56
2022/04/11 09:28:20;;;;;;;5.15;1.90;;;12.60;64.40;;;;;;5053998;28;20045;-58
2022/04/11 09:30:49;;;;;;;7.38;1.90;;;12.60;63.30;;;;;;5057173;28;20458;-58
2022/04/11 09:33:16;;;;;;;6.30;2.47;;;12.70;62.80;;;;;;5055627;28;20041;-56
2022/04/11 09:35:42;;;;;;;4.90;2.10;;;12.70;61.80;;;;;;5058334;28;20045;-54
2022/04/11 09:38:09;;;;;;;7.68;2.20;;;12.70;61.50;;;;;;5053998;28;20059;-57
2022/04/11 09:40:36;;;;;;;5.18;2.28;;;12.80;61.60;;;;;;5053680;28;20037;-55
2022/04/11 09:43:03;;;;;;;3.40;1.52;;;12.90;62.60;;;;;;5053799;28;20045;-59
2022/04/11 09:45:29;;;;;;;3.80;1.52;;;13.00;62.50;;;;;;5053643;28;20037;-52
2022/04/11 09:47:56;;;;;;;3.40;1.50;;;13.00;60.80;;;;;;5053311;28;20048;-57
2022/04/11 09:50:23;;;;;;;8.02;1.80;;;13.10;58.40;;;;;;5053311;28;20081;-58
2022/04/11 09:52:50;;;;;;;3.03;1.55;;;13.10;57.00;;;;;;5053314;28;20071;-59
2022/04/11 09:55:16;;;;;;;4.22;1.67;;;13.10;57.40;;;;;;5052709;28;20071;-59
2022/04/11 09:57:43;;;;;;;6.13;1.73;;;13.10;57.20;;;;;;5053601;28;20040;-54
2022/04/11 10:00:10;;;;;;;9.68;1.85;;;13.10;57.50;;;;;;5053661;28;20037;-59
2022/04/11 10:02:39;;;;;;;3.67;1.45;;;13.10;57.30;;;;;;5053374;28;20448;-54
2022/04/11 10:05:06;;;;;;;7.93;1.65;;;13.10;57.50;;;;;;5053510;28;20086;-57
2022/04/11 10:07:33;;;;;;;4.50;1.42;;;13.10;57.40;;;;;;5051287;28;20060;-53
2022/04/11 10:10:01;;;;;;;2.40;1.20;;;13.20;56.80;;;;;;5051356;28;20048;-54
2022/04/11 10:12:28;;;;;;;7.35;1.60;;;13.30;55.30;;;;;;5051366;28;20068;-52
2022/04/11 10:14:55;;;;;;;4.75;1.40;;;13.40;54.30;;;;;;5051333;28;20044;-55
2022/04/11 10:17:22;;;;;;;3.75;1.02;;;13.50;55.20;;;;;;5051322;28;20576;-56
2022/04/11 10:19:49;;;;;;;3.92;1.40;;;13.50;54.30;;;;;;5051374;28;20094;-58
2022/04/11 10:22:16;;;;;;;4.10;1.40;;;13.60;55.80;;;;;;5052589;28;20443;-56
2022/04/11 10:24:43;;;;;;;4.32;1.15;;;13.70;54.90;;;;;;5054347;28;20072;-55
2022/04/11 10:27:09;;;;;;;3.38;1.10;;;13.80;51.80;;;;;;5052097;28;20481;-58
2022/04/11 10:29:36;;;;;;;4.50;1.05;;;13.80;52.80;;;;;;5053041;28;20095;-58
2022/04/11 10:32:03;;;;;;;4.05;1.35;;;13.90;53.00;;;;;;5053011;28;20049;-54
2022/04/11 10:34:30;;;;;;;5.65;1.30;;;13.90;53.50;;;;;;5051792;28;20487;-53
2022/04/11 10:37:00;;;;;;;3.80;1.80;;;14.00;52.10;;;;;;5052925;28;20048;-51
2022/04/11 10:39:28;;;;;;;2.92;1.27;;;14.00;50.90;;;;;;5053089;28;20087;-56
2022/04/11 10:42:03;;;;;;;2.58;1.20;;;14.10;50.30;;;;;;5053006;28;20067;-52
2022/04/11 10:44:30;;;;;;;4.00;1.50;;;14.10;49.70;;;;;;5051901;28;20057;-57
2022/04/11 10:46:57;;;;;;;3.28;1.25;;;14.20;49.50;;;;;;5052943;28;20068;-54
2022/04/11 10:49:24;;;;;;;3.53;1.60;;;14.20;49.70;;;;;;5052525;28;20129;-56
2022/04/11 10:51:50;;;;;;;3.42;1.30;;;14.30;50.20;;;;;;5052818;28;20045;-55
2022/04/11 10:54:17;;;;;;;5.20;1.50;;;14.30;49.80;;;;;;5056858;28;20095;-58
2022/04/11 10:57:04;;;;;;;4.88;1.35;;;14.30;48.80;;;;;;5053041;28;20049;-55
2022/04/11 10:59:31;;;;;;;8.63;1.90;;;14.30;49.10;;;;;;5046226;28;20110;-56
2022/04/11 11:01:57;;;;;;;7.85;1.50;;;14.30;49.60;;;;;;5044854;28;20045;-58
2022/04/11 11:04:25;;;;;;;3.97;1.70;;;14.30;49.80;;;;;;5053156;28;20419;-54
2022/04/11 11:06:52;;;;;;;4.43;1.40;;;14.30;49.60;;;;;;5052792;28;20068;-54
2022/04/11 11:09:19;;;;;;;4.82;1.65;;;14.30;49.70;;;;;;5052928;28;20472;-56
2022/04/11 11:11:46;;;;;;;6.85;1.40;;;14.40;50.70;;;;;;5052636;28;20487;-56
2022/04/11 11:14:12;;;;;;;7.75;1.40;;;14.60;50.40;;;;;;5052690;28;20495;-58
2022/04/11 11:16:41;;;;;;;6.90;1.88;;;14.60;50.30;;;;;;5052803;28;20459;-55
2022/04/11 11:19:23;;;;;;;7.55;1.92;;;14.70;50.30;;;;;;5052766;28;20048;-56
2022/04/11 11:21:50;;;;;;;5.95;1.58;;;14.80;49.70;;;;;;5051319;28;20153;-55
2022/04/11 11:24:18;;;;;;;5.60;2.00;;;14.90;48.60;;;;;;5052941;28;20045;-56
2022/04/11 11:26:45;;;;;;;3.53;1.42;;;14.90;48.30;;;;;;5052632;28;20368;-51
2022/04/11 11:29:12;;;;;;;2.83;1.40;;;14.90;47.30;;;;;;5056326;28;20044;-55
2022/04/11 11:31:40;;;;;;;4.03;1.92;;;15.00;48.60;;;;;;5052456;28;20041;-57
2022/04/11 11:34:06;;;;;;;4.70;1.75;;;15.00;48.00;;;;;;5051288;28;20056;-58
2022/04/11 11:36:33;;;;;;;7.88;2.47;;;15.10;46.90;;;;;;5054144;28;20083;-56
2022/04/11 11:39:04;;;;;;;2.67;1.50;;;15.20;46.90;;;;;;5056239;28;20052;-56
2022/04/11 11:41:31;;;;;;;4.65;1.60;;;15.20;46.40;;;;;;5056002;28;20128;-56
2022/04/11 11:43:58;;;;;;;3.53;1.45;;;15.30;47.30;;;;;;5058632;28;20106;-55
2022/04/11 11:46:25;;;;;;;3.88;1.33;;;15.40;46.40;;;;;;5056171;28;20065;-52
2022/04/11 11:48:52;;;;;;;5.38;1.70;;;15.40;47.60;;;;;;5055762;28;20107;-51
2022/04/11 11:51:18;;;;;;;3.65;1.60;;;15.40;46.10;;;;;;5058259;28;20049;-54
2022/04/11 11:53:51;;;;;;;3.85;1.42;;;15.40;44.80;;;;;;5056136;28;20498;-55
2022/04/11 11:56:18;;;;;;;4.07;1.58;;;15.40;44.60;;;;;;5056115;28;20045;-55
2022/04/11 11:58:46;;;;;;;3.35;1.65;;;15.40;45.40;;;;;;5055386;28;20073;-52
2022/04/11 12:01:13;;;;;;;3.42;1.83;;;15.50;46.10;;;;;;5055738;28;20063;-53
2022/04/11 12:06:25;;;;;;;;;;;15.80;45.00;;;;;;5061674;28;20041;-55
2022/04/11 12:08:52;;;;;;;3.65;1.70;;;15.80;43.70;;;;;;5055773;28;19920;-55
2022/04/11 12:11:19;;;;;;;5.15;2.00;;;15.80;44.30;;;;;;5059952;28;20045;-52
2022/04/11 12:13:45;;;;;;;8.05;2.00;;;15.80;44.30;;;;;;5055682;28;20090;-53
2022/04/11 12:16:17;;;;;;;7.60;2.00;;;15.80;45.10;;;;;;5055721;28;20128;-53
2022/04/11 12:18:51;;;;;;;4.30;1.77;;;15.80;45.60;;;;;;5055701;28;20045;-53
2022/04/11 12:21:17;;;;;;;7.18;1.80;;;15.90;44.40;;;;;;5054025;28;20041;-53
2022/04/11 12:23:45;;;;;;;9.27;2.15;;;15.90;43.50;;;;;;5054452;28;20111;-57
2022/04/11 12:26:12;;;;;;;7.82;1.75;;;15.90;43.70;;;;;;5054364;28;20048;-54
2022/04/11 12:28:39;;;;;;;3.08;1.55;;;15.90;42.90;;;;;;5054312;28;20102;-56
2022/04/11 12:31:06;;;;;;;3.45;1.70;;;15.90;43.20;;;;;;5052955;28;20037;-53
2022/04/11 12:33:33;;;;;;;5.10;1.58;;;15.90;44.00;;;;;;5054300;28;20076;-54
2022/04/11 12:36:00;;;;;;;4.18;1.80;;;16.00;44.70;;;;;;5053885;28;20037;-53
2022/04/11 12:38:26;;;;;;;4.65;2.05;;;16.10;44.90;;;;;;5053703;28;20045;-54
2022/04/11 12:40:54;;;;;;;9.48;2.40;;;16.10;45.00;;;;;;5054264;28;20065;-55
2022/04/11 12:43:22;;;;;;;8.02;2.75;;;16.20;43.90;;;;;;5054661;28;20037;-55
2022/04/11 12:45:49;;;;;;;6.75;2.05;;;16.30;44.40;;;;;;5054766;28;20037;-53
2022/04/11 12:48:16;;;;;;;7.88;2.30;;;16.30;43.90;;;;;;5054597;28;20037;-56
2022/04/11 12:50:42;;;;;;;6.97;2.20;;;16.30;44.80;;;;;;5054595;28;20072;-55
2022/04/11 12:53:10;;;;;;;6.43;1.98;;;16.40;44.50;;;;;;5054481;28;20056;-56
2022/04/11 12:55:37;;;;;;;5.53;1.88;;;16.50;44.50;;;;;;5058944;28;20072;-52
2022/04/11 12:58:04;;;;;;;4.22;2.00;;;16.60;43.50;;;;;;5054660;28;20045;-56
2022/04/11 13:00:30;;;;;;;6.07;2.10;;;16.60;43.30;;;;;;5054580;28;20072;-54
2022/04/11 13:02:57;;;;;;;6.03;2.20;;;16.70;43.70;;;;;;5053151;28;20041;-53
2022/04/11 13:05:24;;;;;;;11.40;2.10;;;16.70;43.90;;;;;;5054401;28;20095;-55
2022/04/11 13:07:59;;;;;;;5.85;1.90;;;16.80;44.20;;;;;;5054356;28;20033;-51
2022/04/11 13:10:26;;;;;;;4.75;1.90;;;17.00;44.40;;;;;;5054451;28;20045;-50
2022/04/11 13:12:53;;;;;;;5.85;2.05;;;17.10;43.90;;;;;;5053950;28;20044;-55
2022/04/11 13:15:19;;;;;;;5.18;2.20;;;17.20;43.20;;;;;;5054461;28;20041;-55
2022/04/11 13:20:37;;;;;;;3.58;2.22;;;17.20;42.80;;;;;;5051032;28;20045;-51
2022/04/11 13:23:04;;;;;;;8.18;2.70;;;17.10;42.90;;;;;;5054064;28;20091;-53
2022/04/11 13:25:31;;;;;;;5.20;2.08;;;17.00;43.10;;;;;;5055120;28;20040;-53
2022/04/11 13:28:17;;;;;;;15.75;3.22;;;17.00;43.00;;;;;;5054076;28;20041;-54
2022/04/11 13:30:44;;;;;;;4.18;2.42;;;17.00;43.30;;;;;;5054145;28;20045;-54
2022/04/11 13:33:11;;;;;;;4.53;2.47;;;17.00;43.40;;;;;;5052307;28;20053;-55
2022/04/11 13:35:38;;;;;;;7.35;2.53;;;17.00;43.40;;;;;;5052619;28;20049;-52
2022/04/11 13:38:09;;;;;;;5.55;2.63;;;17.00;43.10;;;;;;5053872;28;20125;-52
2022/04/11 13:40:35;;;;;;;9.50;2.85;;;17.00;43.70;;;;;;5053814;28;20049;-53
2022/04/11 13:43:02;;;;;;;8.07;2.80;;;17.00;43.70;;;;;;5053423;28;20407;-55
2022/04/11 13:45:37;;;;;;;4.78;2.88;;;16.90;44.20;;;;;;5053723;28;20450;-55
2022/04/11 13:48:04;;;;;;;5.07;2.70;;;17.00;44.90;;;;;;5053829;28;20041;-53
2022/04/11 13:50:31;;;;;;;6.28;3.08;;;17.00;44.60;;;;;;5053373;28;20053;-53
2022/04/11 13:52:58;;;;;;;5.07;3.13;;;17.00;45.10;;;;;;5053377;28;20099;-55
2022/04/11 13:55:24;;;;;;;6.20;3.30;;;17.00;45.60;;;;;;5055400;28;20438;-54
2022/04/11 13:57:51;;;;;;;5.63;3.40;;;17.00;44.80;;;;;;5053743;28;20463;-51
2022/04/11 14:00:18;;;;;;;4.93;3.10;;;16.90;44.90;;;;;;5053167;28;20041;-57
2022/04/11 14:02:46;;;;;;;5.22;3.35;;;17.00;45.30;;;;;;5053076;28;20041;-53
2022/04/11 14:05:13;;;;;;;6.60;3.83;;;16.90;45.40;;;;;;5053528;28;20553;-54
2022/04/11 14:07:40;;;;;;;4.82;3.38;;;16.90;45.10;;;;;;5053361;28;20037;-55
2022/04/11 14:10:09;;;;;;;4.47;3.28;;;16.90;45.20;;;;;;5053271;28;20036;-55
2022/04/11 14:12:36;;;;;;;5.55;3.63;;;17.00;45.20;;;;;;5051984;28;20044;-54
2022/04/11 14:15:03;;;;;;;5.18;3.35;;;17.00;45.40;;;;;;5053111;28;20510;-54
2022/04/11 14:17:29;;;;;;;5.50;3.05;;;17.10;45.20;;;;;;5053178;28;20495;-56
2022/04/11 14:19:56;;;;;;;5.72;3.42;;;17.20;45.10;;;;;;5052002;28;20045;-56
2022/04/11 14:22:23;;;;;;;7.18;3.40;;;17.30;44.90;;;;;;5053148;28;20116;-54
2022/04/11 14:24:50;;;;;;;5.03;3.60;;;17.30;44.60;;;;;;5058010;28;20041;-55
2022/04/11 14:27:17;;;;;;;6.35;3.90;;;17.40;45.20;;;;;;5051701;28;20128;-56
2022/04/11 14:29:44;;;;;;;8.43;3.50;;;17.40;44.80;;;;;;5052955;28;20483;-58
2022/04/11 14:32:11;;;;;;;6.60;4.40;;;17.40;45.00;;;;;;5052779;28;20094;-54
2022/04/11 14:34:37;;;;;;;5.32;3.97;;;17.40;44.40;;;;;;5052974;28;20060;-55
2022/04/11 14:37:04;;;;;;;8.88;3.63;;;17.30;45.10;;;;;;5052443;28;20502;-55
2022/04/11 14:39:33;;;;;;;5.63;4.03;;;17.40;45.20;;;;;;5052937;28;20052;-57
2022/04/11 14:42:00;;;;;;;6.15;4.35;;;17.40;45.10;;;;;;5051388;28;20066;-55
2022/04/11 14:44:27;;;;;;;5.10;3.75;;;17.40;45.30;;;;;;5052821;28;20128;-56
2022/04/11 14:46:53;;;;;;;5.72;4.00;;;17.40;44.90;;;;;;5058305;28;20520;-56
2022/04/11 14:49:20;;;;;;;7.18;4.60;;;17.30;44.90;;;;;;5063666;28;20055;-55
2022/04/11 14:52:07;;;;;;;10.27;4.97;;;17.30;45.10;;;;;;5052563;28;20041;-56
2022/04/11 14:54:34;;;;;;;5.97;4.28;;;17.40;45.70;;;;;;5052682;28;20725;-55
2022/04/11 14:57:00;;;;;;;6.85;4.00;;;17.40;45.50;;;;;;5060581;28;20037;-54
2022/04/11 14:59:27;;;;;;;6.28;4.05;;;17.40;45.60;;;;;;5057283;28;20094;-56
2022/04/11 15:01:54;;;;;;;7.20;4.35;;;17.40;45.00;;;;;;5055688;28;20037;-54
2022/04/11 15:04:21;;;;;;;7.82;4.85;;;17.30;46.10;;;;;;5052586;28;20036;-56
2022/04/11 15:06:48;;;;;;;9.15;4.75;;;17.40;45.60;;;;;;5052283;28;20446;-56
2022/04/11 15:09:15;;;;;;;6.57;4.80;;;17.40;46.50;;;;;;5052514;28;20094;-54
2022/04/11 15:11:41;;;;;;;12.55;6.30;;;17.40;46.40;;;;;;5059386;28;20041;-52
2022/04/11 15:14:08;;;;;;;11.98;5.60;;;17.30;53.40;;;;;;5056705;28;20041;-53
2022/04/11 15:16:35;;;;;;;12.23;6.60;;;17.30;55.10;;;;;;5056704;28;20041;-54
2022/04/11 15:19:01;;;;;;;12.95;6.45;;;17.20;59.40;;;;;;5056248;28;20128;-55
2022/04/11 15:21:28;;;;;;;10.98;6.50;;;17.00;61.30;;;;;;5056076;28;20048;-57
2022/04/11 15:23:56;;;;;;;15.48;6.95;;;16.90;62.60;;;;;;5056343;28;20434;-54
2022/04/11 15:26:25;;;;;;;11.25;6.35;;;16.70;63.90;;;;;;5054998;28;20488;-57
2022/04/11 15:28:52;;;;;;;10.25;6.35;;;16.70;65.20;;;;;;5056369;28;20041;-54
2022/04/11 15:31:19;;;;;;;13.32;6.32;;;16.60;66.20;;;;;;5060871;28;20083;-56
2022/04/11 15:33:46;;;;;;;12.30;6.80;;;16.50;66.60;;;;;;5057337;28;20464;-55
2022/04/11 15:36:13;;;;;;;11.93;6.53;;;16.40;67.60;;;;;;5056131;28;20119;-51
2022/04/11 15:38:40;;;;;;;12.15;6.90;;;16.30;68.50;;;;;;5054737;28;20036;-53
2022/04/11 15:41:08;;;;;;;13.65;6.65;;;16.20;69.00;;;;;;5055954;28;20045;-55
2022/04/11 15:43:36;;;;;;;17.50;6.75;;;16.10;70.00;;;;;;5056106;28;20502;-55
2022/04/11 15:46:03;;;;;;;13.55;7.32;;;16.00;70.60;;;;;;5056012;28;20380;-56
2022/04/11 15:48:30;;;;;;;19.73;7.82;;;15.90;70.90;;;;;;5055815;28;20115;-55
2022/04/11 15:50:57;;;;;;;12.95;7.00;;;15.90;71.40;;;;;;5054543;28;20385;-56
2022/04/11 15:53:29;;;;;;;12.38;7.50;;;15.90;71.80;;;;;;5056337;28;20041;-55
2022/04/11 15:55:56;;;;;;;12.50;7.20;;;15.90;71.80;;;;;;5055026;28;20041;-54
2022/04/11 15:58:23;;;;;;;11.95;7.18;;;16.00;72.10;;;;;;5059048;28;20049;-53
2022/04/11 16:00:49;;;;;;;15.82;7.60;;;16.00;71.70;;;;;;5056055;28;20075;-53
2022/04/11 16:03:16;;;;;;;13.85;8.00;;;16.10;71.40;;;;;;5055711;28;20471;-56
2022/04/11 16:05:43;;;;;;;18.95;6.90;;;16.10;71.50;;;;;;5055786;28;20041;-56
2022/04/11 16:08:10;;;;;;;11.82;6.32;;;16.20;71.20;;;;;;5055834;28;20040;-55
2022/04/11 16:10:36;;;;;;;13.32;6.32;;;16.20;71.10;;;;;;5055638;28;20462;-52
2022/04/11 16:13:03;;;;;;;14.82;6.57;;;16.30;71.30;;;;;;5055592;28;20445;-55
2022/04/11 16:15:30;;;;;;;10.43;5.95;;;16.40;70.30;;;;;;5055777;28;20402;-54
2022/04/11 16:17:57;;;;;;;12.85;6.55;;;16.50;67.80;;;;;;5055623;28;20047;-55
2022/04/11 16:20:23;;;;;;;10.10;6.63;;;16.50;67.20;;;;;;5055858;28;20503;-55
2022/04/11 16:22:50;;;;;;;13.18;7.32;;;16.60;65.50;;;;;;5055019;28;20116;-54
2022/04/11 16:25:17;;;;;;;11.00;6.82;;;16.60;65.00;;;;;;5055548;28;20076;-56
2022/04/11 16:27:44;;;;;;;12.45;6.38;;;16.70;64.50;;;;;;5056268;28;20059;-56
2022/04/11 16:30:10;;;;;;;11.85;6.82;;;16.80;64.20;;;;;;5055355;28;20065;-57
2022/04/11 16:32:37;;;;;;;12.02;6.85;;;16.80;64.90;;;;;;5055307;28;20041;-55
2022/04/11 16:35:04;;;;;;;12.38;7.93;;;17.00;64.80;;;;;;5054569;28;20047;-54
2022/04/11 16:37:50;;;;;;;13.25;7.63;;;17.10;60.70;;;;;;5055203;28;20051;-56
2022/04/11 16:40:18;;;;;;;13.73;8.27;;;17.30;61.50;;;;;;5055187;28;20045;-55
2022/04/11 16:42:45;;;;;;;9.23;6.80;;;17.30;59.40;;;;;;5054330;28;20371;-56
2022/04/11 16:45:12;;;;;;;11.30;8.90;;;17.20;60.30;;;;;;5054256;28;20071;-57
2022/04/11 16:47:39;;;;;;;10.90;7.70;;;17.20;57.70;;;;;;5053965;28;20041;-54
2022/04/11 16:50:05;;;;;;;14.98;9.15;;;17.20;58.00;;;;;;5054487;28;20125;-53
2022/04/11 16:52:32;;;;;;;12.85;10.10;;;17.40;57.00;;;;;;5048180;28;20141;-54
2022/04/11 16:54:59;;;;;;;14.13;10.00;;;17.80;55.90;;;;;;5047764;28;20069;-54
2022/04/11 16:57:26;;;;;;;11.23;9.23;;;18.20;55.90;;;;;;5055930;28;20055;-54
2022/04/11 16:59:52;;;;;;;11.48;9.85;;;18.50;55.00;;;;;;5055024;28;20428;-57
2022/04/11 17:02:19;;;;;;;13.43;10.20;;;18.70;53.10;;;;;;5054577;28;20134;-55
2022/04/11 17:04:46;;;;;;;13.70;10.68;;;18.90;52.90;;;;;;5054702;28;20045;-53
2022/04/11 17:07:14;;;;;;;12.13;10.07;;;18.80;52.30;;;;;;5054536;28;20044;-57
2022/04/11 17:09:41;;;;;;;14.02;10.07;;;18.70;53.10;;;;;;5054783;28;20391;-55
2022/04/11 17:12:08;;;;;;;13.43;10.35;;;18.60;53.00;;;;;;5054392;28;20040;-54
2022/04/11 17:14:34;;;;;;;12.73;10.93;;;18.40;53.30;;;;;;5054718;28;20120;-55
2022/04/11 17:19:46;;;;;;;;;;;18.10;54.10;;;;;;5055096;28;20051;-55
2022/04/11 17:22:13;;;;;;;14.05;10.95;;;17.90;54.20;;;;;;5053066;28;20024;-55
2022/04/11 17:24:40;;;;;;;13.40;11.55;;;17.90;54.50;;;;;;5054443;28;20048;-55
2022/04/11 17:27:08;;;;;;;12.95;11.45;;;17.70;55.00;;;;;;5054427;28;20037;-56
2022/04/11 17:29:35;;;;;;;16.15;11.80;;;17.60;55.20;;;;;;5060262;28;20440;-50
2022/04/11 17:32:02;;;;;;;16.85;11.88;;;17.40;55.60;;;;;;5054366;28;20446;-55
2022/04/11 17:34:33;;;;;;;15.02;11.93;;;17.30;56.50;;;;;;5053217;28;20041;-53
2022/04/11 17:37:00;;;;;;;14.02;11.85;;;17.10;56.80;;;;;;5054175;28;20395;-54
2022/04/11 17:39:29;;;;;;;14.18;11.80;;;17.00;58.10;;;;;;5054140;28;20464;-57
2022/04/11 17:41:56;;;;;;;15.15;11.88;;;16.90;58.40;;;;;;5053883;28;20041;-52
2022/04/11 17:44:23;;;;;;;13.88;10.85;;;16.80;58.90;;;;;;5054193;28;20067;-55
2022/04/11 17:46:50;;;;;;;15.45;11.68;;;16.70;59.60;;;;;;5054272;28;20037;-52
2022/04/11 17:49:17;;;;;;;14.05;11.82;;;16.70;60.30;;;;;;5053667;28;20049;-56
2022/04/11 17:51:48;;;;;;;15.57;11.73;;;16.70;60.40;;;;;;5054164;28;20052;-53
2022/04/11 17:54:15;;;;;;;17.33;11.55;;;16.60;60.70;;;;;;5053882;28;20060;-54
2022/04/11 17:56:45;;;;;;;16.50;11.55;;;16.50;61.20;;;;;;5054618;28;20495;-56
2022/04/11 17:59:12;;;;;;;18.10;12.25;;;16.50;61.60;;;;;;5053763;28;20060;-54
2022/04/11 18:01:39;;;;;;;15.10;12.55;;;16.40;61.90;;;;;;5052844;28;20045;-54
2022/04/11 18:04:06;;;;;;;19.42;12.60;;;16.30;62.30;;;;;;5053653;28;20037;-54
2022/04/11 18:06:33;;;;;;;17.73;12.73;;;16.20;62.60;;;;;;5053837;28;20079;-54
2022/04/11 18:09:00;;;;;;;17.08;13.00;;;16.10;63.60;;;;;;5053681;28;20120;-54
2022/04/11 18:11:27;;;;;;;20.17;13.18;;;16.10;63.80;;;;;;5053381;28;20071;-54
2022/04/11 18:13:54;;;;;;;18.88;13.98;;;16.00;64.20;;;;;;5053428;28;20052;-53
2022/04/11 18:16:22;;;;;;;18.17;13.88;;;15.90;64.50;;;;;;5054363;28;20103;-49
2022/04/11 18:18:49;;;;;;;20.27;14.88;;;15.90;65.20;;;;;;5053730;28;20119;-56
2022/04/11 18:21:15;;;;;;;19.45;14.75;;;15.80;65.40;;;;;;5053288;28;20041;-52
2022/04/11 18:23:42;;;;;;;18.40;14.00;;;15.70;65.70;;;;;;5053276;28;20094;-56
2022/04/11 18:26:10;;;;;;;18.35;14.70;;;15.70;66.10;;;;;;5047026;28;20542;-54
2022/04/11 18:31:32;;;;;;;19.60;14.43;;;15.50;67.00;;;;;;5053348;28;20036;-55
2022/04/11 18:33:59;;;;;;;19.75;15.15;;;15.50;67.70;;;;;;5053192;28;20039;-51
2022/04/11 18:36:25;;;;;;;23.48;15.93;;;15.40;68.00;;;;;;5053233;28;20083;-55
2022/04/11 18:38:52;;;;;;;19.52;14.63;;;15.40;68.40;;;;;;5053256;28;20041;-54
2022/04/11 18:41:19;;;;;;;20.15;15.38;;;15.30;68.60;;;;;;5053171;28;20041;-55
2022/04/11 18:43:46;;;;;;;20.67;16.00;;;15.30;69.00;;;;;;5053139;28;20570;-54
2022/04/11 18:46:12;;;;;;;20.67;14.27;;;15.30;69.10;;;;;;5056419;28;20048;-55
2022/04/11 18:48:44;;;;;;;20.38;14.95;;;15.20;69.40;;;;;;5053016;28;20377;-54
2022/04/11 18:51:11;;;;;;;17.45;13.93;;;15.10;70.40;;;;;;5053549;28;20538;-56
2022/04/11 18:53:38;;;;;;;20.40;14.27;;;15.10;70.20;;;;;;5053115;28;20415;-53
2022/04/11 18:56:05;;;;;;;20.52;14.63;;;15.00;70.50;;;;;;5052825;28;20090;-52
2022/04/11 18:58:32;;;;;;;23.95;15.23;;;15.00;71.30;;;;;;5054086;28;20502;-57
2022/04/11 19:00:59;;;;;;;22.90;16.63;;;14.90;71.60;;;;;;5056492;28;20045;-53
2022/04/11 19:03:26;;;;;;;22.50;16.13;;;14.80;71.80;;;;;;5052234;28;20067;-50
2022/04/11 19:05:52;;;;;;;21.50;16.75;;;14.80;72.10;;;;;;5056824;28;20068;-52
2022/04/11 19:08:19;;;;;;;22.92;16.20;;;14.80;72.40;;;;;;5052839;28;20479;-56
2022/04/11 19:10:47;;;;;;;24.83;16.30;;;14.80;72.80;;;;;;5055173;28;20033;-54
2022/04/11 19:13:14;;;;;;;21.73;15.82;;;14.70;73.00;;;;;;5052727;28;20048;-56
2022/04/11 19:15:41;;;;;;;23.27;16.13;;;14.70;73.30;;;;;;5054198;28;20379;-53
2022/04/11 19:18:08;;;;;;;24.20;16.38;;;14.60;73.70;;;;;;5052732;28;20087;-51
2022/04/11 19:20:35;;;;;;;24.00;17.05;;;14.60;73.90;;;;;;5053408;28;20459;-51
2022/04/11 19:23:01;;;;;;;27.20;16.67;;;14.60;73.90;;;;;;5052502;28;20041;-54
2022/04/11 19:25:30;;;;;;;26.27;17.70;;;14.50;74.20;;;;;;5052562;28;20037;-53
2022/04/11 19:27:57;;;;;;;30.20;18.10;;;14.50;74.70;;;;;;5052692;28;20044;-52
2022/04/11 19:30:24;;;;;;;28.17;18.73;;;14.50;74.70;;;;;;5052729;28;20460;-52
2022/04/11 19:32:51;;;;;;;28.80;19.45;;;14.50;75.10;;;;;;5055403;28;20033;-54
2022/04/11 19:35:20;;;;;;;28.58;18.55;;;14.50;75.30;;;;;;5052809;28;20037;-54
2022/04/11 19:37:47;;;;;;;27.50;17.38;;;14.50;75.70;;;;;;5052402;28;20037;-52
2022/04/11 19:40:14;;;;;;;28.73;18.27;;;14.50;76.00;;;;;;5052839;28;20432;-55
2022/04/11 19:42:41;;;;;;;29.38;18.55;;;14.40;76.00;;;;;;5052587;28;20420;-56
2022/04/11 19:45:08;;;;;;;30.65;17.50;;;14.40;76.10;;;;;;5052576;28;20089;-54